createdAt,value
2017-09-01T00:00:07.212Z,7.00
2017-09-01T00:02:34.647Z,6.77
2017-09-01T00:05:02.088Z,5.77
2017-09-01T00:07:29.553Z,6.67
2017-09-01T00:09:57.003Z,6.00
2017-09-01T00:12:24.452Z,6.20
2017-09-01T00:14:51.912Z,6.37
2017-09-01T00:17:19.385Z,6.10
2017-09-01T00:19:46.848Z,5.80
2017-09-01T00:22:14.303Z,6.10
2017-09-01T00:24:42.238Z,6.47
2017-09-01T00:27:09.671Z,6.33
2017-09-01T00:29:37.151Z,6.30
2017-09-01T00:32:04.593Z,6.50
2017-09-01T00:34:32.024Z,6.37
2017-09-01T00:36:59.482Z,6.00
2017-09-01T00:39:26.940Z,5.90
2017-09-01T00:41:54.633Z,6.90
2017-09-01T00:44:22.499Z,7.47
2017-09-01T00:46:50.721Z,7.70
2017-09-01T00:49:22.465Z,7.90
2017-09-01T00:51:49.976Z,7.70
2017-09-01T00:54:20.963Z,7.77
2017-09-01T00:56:48.420Z,7.77
2017-09-01T00:59:15.896Z,6.50
2017-09-01T01:01:43.392Z,8.03
2017-09-01T01:04:11.203Z,9.07
2017-09-01T01:06:38.908Z,8.50
2017-09-01T01:09:06.395Z,7.87
2017-09-01T01:11:33.860Z,8.30
2017-09-01T01:14:01.653Z,9.20
2017-09-01T01:16:29.494Z,9.30
2017-09-01T01:18:57.302Z,9.50
2017-09-01T01:21:24.833Z,9.13
2017-09-01T01:23:52.296Z,9.50
2017-09-01T01:26:20.013Z,9.07
2017-09-01T01:28:47.512Z,9.00
2017-09-01T01:31:14.966Z,9.57
2017-09-01T01:33:42.537Z,9.60
2017-09-01T01:36:09.996Z,9.17
2017-09-01T01:38:38.299Z,9.50
2017-09-01T01:41:06.665Z,9.97
2017-09-01T01:43:35.170Z,9.90
2017-09-01T01:46:03.387Z,9.50
2017-09-01T01:48:30.830Z,9.73
2017-09-01T01:50:58.287Z,10.70
2017-09-01T01:53:25.876Z,8.83
2017-09-01T01:55:53.571Z,8.93
2017-09-01T01:58:21.572Z,10.20
2017-09-01T02:00:49.396Z,11.03
2017-09-01T02:03:17.073Z,10.07
2017-09-01T02:05:44.557Z,9.73
2017-09-01T02:08:15.913Z,9.67
2017-09-01T02:10:43.387Z,9.87
2017-09-01T02:13:12.189Z,11.90
2017-09-01T02:15:39.680Z,10.60
2017-09-01T02:18:08.348Z,10.70
2017-09-01T02:20:35.808Z,11.03
2017-09-01T02:23:04.033Z,10.57
2017-09-01T02:25:31.527Z,10.30
2017-09-01T02:27:58.969Z,10.47
2017-09-01T02:30:26.480Z,12.27
2017-09-01T02:32:54.058Z,12.10
2017-09-01T02:35:21.521Z,11.50
2017-09-01T02:37:49.625Z,13.25
2017-09-01T02:40:17.081Z,12.20
2017-09-01T02:42:44.531Z,12.47
2017-09-01T02:45:16.583Z,13.20
2017-09-01T02:47:44.071Z,13.70
2017-09-01T02:50:16.504Z,12.87
2017-09-01T02:52:43.979Z,14.60
2017-09-01T02:55:11.669Z,13.93
2017-09-01T02:57:40.128Z,14.93
2017-09-01T03:00:07.624Z,15.07
2017-09-01T03:02:35.081Z,14.90
2017-09-01T03:05:02.533Z,14.03
2017-09-01T03:07:30.007Z,16.17
2017-09-01T03:09:57.514Z,14.90
2017-09-01T03:12:24.999Z,16.53
2017-09-01T03:14:52.608Z,16.30
2017-09-01T03:17:20.081Z,14.57
2017-09-01T03:19:47.583Z,14.30
2017-09-01T03:22:19.000Z,15.02
2017-09-01T03:24:47.143Z,14.43
2017-09-01T03:27:14.854Z,16.07
2017-09-01T03:29:43.694Z,14.73
2017-09-01T03:32:11.537Z,14.80
2017-09-01T03:34:39.307Z,14.57
2017-09-01T03:37:06.798Z,14.50
2017-09-01T03:39:34.580Z,15.23
2017-09-01T03:42:02.048Z,13.77
2017-09-01T03:44:29.931Z,14.60
2017-09-01T03:46:58.431Z,15.00
2017-09-01T03:49:25.900Z,15.23
2017-09-01T03:51:53.377Z,15.40
2017-09-01T03:54:20.846Z,15.37
2017-09-01T03:56:49.764Z,14.37
2017-09-01T03:59:18.285Z,14.15
2017-09-01T04:01:45.851Z,13.93
2017-09-01T04:04:13.643Z,15.90
2017-09-01T04:06:41.426Z,16.62
2017-09-01T04:09:09.107Z,15.73
2017-09-01T04:11:37.223Z,15.50
2017-09-01T04:14:05.113Z,14.87
2017-09-01T04:16:32.613Z,14.85
2017-09-01T04:19:04.052Z,14.17
2017-09-01T04:21:31.515Z,15.97
2017-09-01T04:24:04.002Z,15.47
2017-09-01T04:26:32.336Z,13.95
2017-09-01T04:28:59.959Z,14.70
2017-09-01T04:31:28.639Z,14.75
2017-09-01T04:33:56.107Z,15.18
2017-09-01T04:36:24.392Z,15.00
2017-09-01T04:38:52.101Z,15.00
2017-09-01T04:41:19.603Z,14.23
2017-09-01T04:43:47.056Z,15.85
2017-09-01T04:46:14.946Z,13.93
2017-09-01T04:48:43.732Z,14.75
2017-09-01T04:51:11.210Z,13.62
2017-09-01T04:53:39.344Z,15.30
2017-09-01T04:56:07.183Z,15.35
2017-09-01T04:58:34.775Z,13.75
2017-09-01T05:01:02.251Z,15.20
2017-09-01T05:03:30.592Z,13.80
2017-09-01T05:05:58.124Z,15.60
2017-09-01T05:08:25.996Z,13.32
2017-09-01T05:10:53.777Z,14.90
2017-09-01T05:13:21.252Z,13.80
2017-09-01T05:15:49.454Z,16.77
2017-09-01T05:18:17.323Z,13.88
2017-09-01T05:20:45.092Z,15.90
2017-09-01T05:23:12.556Z,14.90
2017-09-01T05:25:40.030Z,14.90
2017-09-01T05:28:08.104Z,14.02
2017-09-01T05:30:39.307Z,14.80
2017-09-01T05:33:06.763Z,14.83
2017-09-01T05:35:34.232Z,15.83
2017-09-01T05:38:05.645Z,15.13
2017-09-01T05:40:33.405Z,14.30
2017-09-01T05:43:00.883Z,17.17
2017-09-01T05:45:28.401Z,15.68
2017-09-01T05:47:56.228Z,15.60
2017-09-01T05:50:24.349Z,15.73
2017-09-01T05:52:52.202Z,14.27
2017-09-01T05:55:19.643Z,13.90
2017-09-01T05:57:47.784Z,13.97
2017-09-01T06:00:15.782Z,13.77
2017-09-01T06:02:43.457Z,14.60
2017-09-01T06:05:11.443Z,15.50
2017-09-01T06:07:39.641Z,14.70
2017-09-01T06:10:07.415Z,14.77
2017-09-01T06:12:34.855Z,15.37
2017-09-01T06:15:02.365Z,14.77
2017-09-01T06:17:29.814Z,13.73
2017-09-01T06:19:57.321Z,13.53
2017-09-01T06:22:25.520Z,13.33
2017-09-01T06:24:53.091Z,13.30
2017-09-01T06:27:20.561Z,14.00
2017-09-01T06:29:48.329Z,14.63
2017-09-01T06:32:19.725Z,15.67
2017-09-01T06:34:48.005Z,12.97
2017-09-01T06:37:17.098Z,13.80
2017-09-01T06:39:44.562Z,12.97
2017-09-01T06:42:13.085Z,13.23
2017-09-01T06:44:40.875Z,12.63
2017-09-01T06:47:09.686Z,11.83
2017-09-01T06:49:37.219Z,15.10
2017-09-01T06:52:05.571Z,12.23
2017-09-01T06:54:33.066Z,13.90
2017-09-01T06:57:00.526Z,13.50
2017-09-01T06:59:28.010Z,12.87
2017-09-01T07:01:55.776Z,10.63
2017-09-01T07:04:23.741Z,12.67
2017-09-01T07:06:51.949Z,13.40
2017-09-01T07:09:19.440Z,12.60
2017-09-01T07:11:46.885Z,12.60
2017-09-01T07:14:14.592Z,13.07
2017-09-01T07:16:42.108Z,13.87
2017-09-01T07:19:09.669Z,13.50
2017-09-01T07:21:37.249Z,11.80
2017-09-01T07:24:05.064Z,12.97
2017-09-01T07:26:33.387Z,13.40
2017-09-01T07:29:01.072Z,12.30
2017-09-01T07:31:28.572Z,12.37
2017-09-01T07:33:56.099Z,13.03
2017-09-01T07:36:24.393Z,14.27
2017-09-01T07:38:52.367Z,13.40
2017-09-01T07:41:20.552Z,13.10
2017-09-01T07:43:48.056Z,11.33
2017-09-01T07:46:19.667Z,11.20
2017-09-01T07:48:51.567Z,11.80
2017-09-01T07:51:19.071Z,12.77
2017-09-01T07:53:47.668Z,13.10
2017-09-01T07:56:15.938Z,11.50
2017-09-01T07:58:43.475Z,12.10
2017-09-01T08:01:11.011Z,11.93
2017-09-01T08:03:39.322Z,11.30
2017-09-01T08:06:07.444Z,11.47
2017-09-01T08:08:34.885Z,13.57
2017-09-01T08:11:02.329Z,11.23
2017-09-01T08:13:29.828Z,11.97
2017-09-01T08:15:57.281Z,12.60
2017-09-01T08:18:25.354Z,12.27
2017-09-01T08:20:57.776Z,11.13
2017-09-01T08:23:25.339Z,12.27
2017-09-01T08:26:04.395Z,11.80
2017-09-01T08:28:31.907Z,10.53
2017-09-01T08:30:59.369Z,10.27
2017-09-01T08:33:26.808Z,11.97
2017-09-01T08:35:54.575Z,10.87
2017-09-01T08:38:22.049Z,12.00
2017-09-01T08:40:49.667Z,10.40
2017-09-01T08:43:17.144Z,10.50
2017-09-01T08:45:44.604Z,11.53
2017-09-01T08:48:12.111Z,11.17
2017-09-01T08:50:39.862Z,11.23
2017-09-01T08:53:07.439Z,10.80
2017-09-01T08:55:36.142Z,10.43
2017-09-01T08:58:05.385Z,10.80
2017-09-01T09:00:33.775Z,11.90
2017-09-01T09:03:01.264Z,10.37
2017-09-01T09:05:28.785Z,11.40
2017-09-01T09:07:56.232Z,10.67
2017-09-01T09:10:23.702Z,10.43
2017-09-01T09:12:51.234Z,10.90
2017-09-01T09:15:18.694Z,11.27
2017-09-01T09:17:46.904Z,11.50
2017-09-01T09:20:14.358Z,10.73
2017-09-01T09:22:41.840Z,10.10
2017-09-01T09:25:10.752Z,9.27
2017-09-01T09:27:38.233Z,9.90
2017-09-01T09:30:05.669Z,10.00
2017-09-01T09:32:33.202Z,9.17
2017-09-01T09:35:00.761Z,10.63
2017-09-01T09:37:29.241Z,9.93
2017-09-01T09:39:57.456Z,8.60
2017-09-01T09:42:25.346Z,8.37
2017-09-01T09:44:53.837Z,8.20
2017-09-01T09:47:21.313Z,9.00
2017-09-01T09:49:52.683Z,8.27
2017-09-01T09:52:20.855Z,9.60
2017-09-01T09:54:48.626Z,9.43
2017-09-01T09:57:16.401Z,7.70
2017-09-01T09:59:47.797Z,8.87
2017-09-01T10:02:19.607Z,9.53
2017-09-01T10:04:47.057Z,9.67
2017-09-01T10:07:14.822Z,10.20
2017-09-01T10:09:42.600Z,9.83
2017-09-01T10:12:10.185Z,8.50
2017-09-01T10:14:38.392Z,6.93
2017-09-01T10:17:05.869Z,8.37
2017-09-01T10:19:34.091Z,7.10
2017-09-01T10:22:01.532Z,5.27
2017-09-01T10:24:29.026Z,6.10
2017-09-01T10:26:56.849Z,6.07
2017-09-01T10:29:24.547Z,5.07
2017-09-01T10:31:52.445Z,5.60
2017-09-01T10:34:19.927Z,5.20
2017-09-01T10:36:47.386Z,4.10
2017-09-01T10:39:14.826Z,4.37
2017-09-01T10:41:42.370Z,4.53
2017-09-01T10:44:09.800Z,5.17
2017-09-01T10:46:38.072Z,4.53
2017-09-01T10:49:18.661Z,5.43
2017-09-01T10:51:57.899Z,5.50
2017-09-01T10:54:38.095Z,5.63
2017-09-01T10:57:30.655Z,4.70
2017-09-01T10:59:58.091Z,5.00
2017-09-01T11:02:25.880Z,5.70
2017-09-01T11:04:53.386Z,5.30
2017-09-01T11:07:21.363Z,5.20
2017-09-01T11:09:48.809Z,5.13
2017-09-01T11:12:16.287Z,4.60
2017-09-01T11:14:44.082Z,4.63
2017-09-01T11:17:11.750Z,3.87
2017-09-01T11:19:44.985Z,4.20
2017-09-01T11:22:34.064Z,4.80
2017-09-01T11:25:01.632Z,4.27
2017-09-01T11:27:29.075Z,4.10
2017-09-01T11:29:56.523Z,4.13
2017-09-01T11:32:24.676Z,4.33
2017-09-01T11:34:52.123Z,5.07
2017-09-01T11:37:20.389Z,6.00
2017-09-01T11:39:48.932Z,5.60
2017-09-01T11:42:16.412Z,6.30
2017-09-01T11:44:44.815Z,5.90
2017-09-01T11:47:12.285Z,7.13
2017-09-01T11:49:40.784Z,6.87
2017-09-01T11:52:08.257Z,6.27
2017-09-01T11:54:35.692Z,6.83
2017-09-01T11:57:03.179Z,5.47
2017-09-01T11:59:30.686Z,5.17
2017-09-01T12:01:58.125Z,5.07
2017-09-01T12:04:25.736Z,4.60
2017-09-01T12:06:53.145Z,5.13
2017-09-01T12:09:20.620Z,5.20
2017-09-01T12:11:48.447Z,5.27
2017-09-01T12:14:15.903Z,5.67
2017-09-01T12:16:43.359Z,6.53
2017-09-01T12:19:11.027Z,4.77
2017-09-01T12:21:39.400Z,5.40
2017-09-01T12:24:06.832Z,5.47
2017-09-01T12:26:34.360Z,4.90
2017-09-01T12:29:02.556Z,4.20
2017-09-01T12:31:30.064Z,3.03
2017-09-01T12:33:57.971Z,3.67
2017-09-01T12:36:26.264Z,4.30
2017-09-01T12:38:53.714Z,3.50
2017-09-01T12:41:21.199Z,3.90
2017-09-01T12:43:52.544Z,4.70
2017-09-01T12:46:20.012Z,5.10
2017-09-01T12:48:47.732Z,4.20
2017-09-01T12:51:16.053Z,3.67
2017-09-01T12:53:44.449Z,4.40
2017-09-01T12:56:11.984Z,4.33
2017-09-01T12:58:40.216Z,4.30
2017-09-01T13:01:09.512Z,5.47
2017-09-01T13:03:37.015Z,4.50
2017-09-01T13:06:05.223Z,4.00
2017-09-01T13:08:32.703Z,3.80
2017-09-01T13:11:00.180Z,2.87
2017-09-01T13:13:31.665Z,3.13
2017-09-01T13:15:59.810Z,2.77
2017-09-01T13:18:27.288Z,2.93
2017-09-01T13:20:54.823Z,3.00
2017-09-01T13:23:23.363Z,3.43
2017-09-01T13:25:50.880Z,3.80
2017-09-01T13:28:19.580Z,3.43
2017-09-01T13:30:47.752Z,3.30
2017-09-01T13:33:16.079Z,2.97
2017-09-01T13:35:43.579Z,3.23
2017-09-01T13:38:14.693Z,4.97
2017-09-01T13:40:42.175Z,3.60
2017-09-01T13:43:09.913Z,3.83
2017-09-01T13:45:37.344Z,4.37
2017-09-01T13:48:04.989Z,4.13
2017-09-01T13:50:33.243Z,3.30
2017-09-01T13:53:02.487Z,3.67
2017-09-01T13:55:29.903Z,4.03
2017-09-01T13:57:57.364Z,2.80
2017-09-01T14:00:25.092Z,3.47
2017-09-01T14:02:52.637Z,3.60
2017-09-01T14:05:20.343Z,3.77
2017-09-01T14:07:48.240Z,3.57
2017-09-01T14:10:15.730Z,4.10
2017-09-01T14:12:43.192Z,3.40
2017-09-01T14:15:10.973Z,3.20
2017-09-01T14:17:38.420Z,3.10
2017-09-01T14:20:05.855Z,3.90
2017-09-01T14:22:33.969Z,3.37
2017-09-01T14:25:01.956Z,2.80
2017-09-01T14:27:29.486Z,2.80
2017-09-01T14:29:57.087Z,3.70
2017-09-01T14:32:24.598Z,2.73
2017-09-01T14:34:52.179Z,2.50
2017-09-01T14:37:19.643Z,2.63
2017-09-01T14:39:47.576Z,2.90
2017-09-01T14:42:15.027Z,3.10
2017-09-01T14:44:42.515Z,3.10
2017-09-01T14:47:14.789Z,2.90
2017-09-01T14:49:42.241Z,2.80
2017-09-01T14:52:14.644Z,3.10
2017-09-01T14:54:42.055Z,3.20
2017-09-01T14:57:09.912Z,3.30
2017-09-01T14:59:37.797Z,2.50
2017-09-01T15:02:05.887Z,2.37
2017-09-01T15:04:33.692Z,2.60
2017-09-01T15:07:01.888Z,3.13
2017-09-01T15:09:30.006Z,2.73
2017-09-01T15:11:57.827Z,3.00
2017-09-01T15:14:26.101Z,2.90
2017-09-01T15:16:53.632Z,2.63
2017-09-01T15:19:21.129Z,3.10
2017-09-01T15:21:48.607Z,2.60
2017-09-01T15:24:16.054Z,2.77
2017-09-01T15:26:43.535Z,2.63
2017-09-01T15:29:11.924Z,2.67
2017-09-01T15:31:39.809Z,2.37
2017-09-01T15:34:07.238Z,3.27
2017-09-01T15:36:34.752Z,2.70
2017-09-01T15:39:02.190Z,3.17
2017-09-01T15:41:29.780Z,2.40
2017-09-01T15:43:57.244Z,2.50
2017-09-01T15:46:25.965Z,2.83
2017-09-01T15:48:53.773Z,2.70
2017-09-01T15:51:23.182Z,2.87
2017-09-01T15:53:51.327Z,2.53
2017-09-01T15:56:19.042Z,2.50
2017-09-01T15:58:46.920Z,2.73
2017-09-01T16:01:15.959Z,2.83
2017-09-01T16:03:43.439Z,2.10
2017-09-01T16:06:10.912Z,2.90
2017-09-01T16:08:38.384Z,2.60
2017-09-01T16:11:06.170Z,2.97
2017-09-01T16:13:33.624Z,2.40
2017-09-01T16:16:01.629Z,2.30
2017-09-01T16:18:29.922Z,2.70
2017-09-01T16:21:02.261Z,2.73
2017-09-01T16:23:29.741Z,2.40
2017-09-01T16:25:57.175Z,2.37
2017-09-01T16:28:24.945Z,2.40
2017-09-01T16:30:53.622Z,3.17
2017-09-01T16:33:21.117Z,2.70
2017-09-01T16:35:48.880Z,2.67
2017-09-01T16:38:16.380Z,2.80
2017-09-01T16:40:45.174Z,2.77
2017-09-01T16:43:12.648Z,3.10
2017-09-01T16:45:40.543Z,2.60
2017-09-01T16:48:07.980Z,2.27
2017-09-01T16:50:35.460Z,2.80
2017-09-01T16:53:03.247Z,2.00
2017-09-01T16:55:30.727Z,2.60
2017-09-01T16:57:58.180Z,2.40
2017-09-01T17:00:25.649Z,2.20
2017-09-01T17:02:53.196Z,2.67
2017-09-01T17:05:20.667Z,2.67
2017-09-01T17:07:48.144Z,2.73
2017-09-01T17:10:15.884Z,3.60
2017-09-01T17:12:44.123Z,2.20
2017-09-01T17:15:11.630Z,2.67
2017-09-01T17:17:39.099Z,2.80
2017-09-01T17:20:11.541Z,2.30
2017-09-01T17:22:39.300Z,2.40
2017-09-01T17:25:07.049Z,2.40
2017-09-01T17:27:34.579Z,3.13
2017-09-01T17:30:01.996Z,2.47
2017-09-01T17:32:29.483Z,2.40
2017-09-01T17:34:56.927Z,2.40
2017-09-01T17:37:25.486Z,2.13
2017-09-01T17:39:53.668Z,2.67
2017-09-01T17:42:21.984Z,2.20
2017-09-01T17:44:49.429Z,2.00
2017-09-01T17:47:17.321Z,2.40
2017-09-01T17:49:46.257Z,4.23
2017-09-01T17:52:13.903Z,2.50
2017-09-01T17:54:41.411Z,2.90
2017-09-01T17:57:09.283Z,2.40
2017-09-01T17:59:37.524Z,3.03
2017-09-01T18:02:05.680Z,3.90
2017-09-01T18:04:33.472Z,2.83
2017-09-01T18:07:01.275Z,2.60
2017-09-01T18:09:28.732Z,3.00
2017-09-01T18:11:56.167Z,2.73
2017-09-01T18:14:23.620Z,3.50
2017-09-01T18:16:51.069Z,3.33
2017-09-01T18:19:18.808Z,2.90
2017-09-01T18:21:47.136Z,2.63
2017-09-01T18:24:15.618Z,3.47
2017-09-01T18:26:43.828Z,3.10
2017-09-01T18:29:11.599Z,2.83
2017-09-01T18:31:39.047Z,3.13
2017-09-01T18:34:07.288Z,3.07
2017-09-01T18:36:34.836Z,3.00
2017-09-01T18:39:02.276Z,3.20
2017-09-01T18:41:29.885Z,2.73
2017-09-01T18:43:57.506Z,3.20
2017-09-01T18:46:25.284Z,3.37
2017-09-01T18:48:53.560Z,3.63
2017-09-01T18:51:21.061Z,3.23
2017-09-01T18:53:48.905Z,4.10
2017-09-01T18:56:16.434Z,3.03
2017-09-01T18:58:44.335Z,3.13
2017-09-01T19:01:11.801Z,3.80
2017-09-01T19:03:39.300Z,4.00
2017-09-01T19:06:06.758Z,3.70
2017-09-01T19:08:34.286Z,2.80
2017-09-01T19:11:01.825Z,3.60
2017-09-01T19:13:29.259Z,3.20
2017-09-01T19:15:57.546Z,3.83
2017-09-01T19:18:24.975Z,3.50
2017-09-01T19:20:52.483Z,3.60
2017-09-01T19:23:24.442Z,2.90
2017-09-01T19:25:52.153Z,3.40
2017-09-01T19:28:19.604Z,3.30
2017-09-01T19:30:51.193Z,3.27
2017-09-01T19:33:18.924Z,3.37
2017-09-01T19:35:47.034Z,3.33
2017-09-01T19:38:14.616Z,3.60
2017-09-01T19:40:42.378Z,3.50
2017-09-01T19:43:09.812Z,3.63
2017-09-01T19:45:37.517Z,3.47
2017-09-01T19:48:05.020Z,3.27
2017-09-01T19:50:32.496Z,3.27
2017-09-01T19:52:59.952Z,3.63
2017-09-01T19:55:27.408Z,3.30
2017-09-01T19:57:55.230Z,3.23
2017-09-01T20:00:22.688Z,4.10
2017-09-01T20:02:50.181Z,4.33
2017-09-01T20:05:18.490Z,4.20
2017-09-01T20:07:46.543Z,4.30
2017-09-01T20:10:13.984Z,4.43
2017-09-01T20:12:41.467Z,4.83
2017-09-01T20:15:08.931Z,4.43
2017-09-01T20:17:36.391Z,4.93
2017-09-01T20:20:03.945Z,4.03
2017-09-01T20:22:31.419Z,4.40
2017-09-01T20:24:58.936Z,3.67
2017-09-01T20:27:26.416Z,5.00
2017-09-01T20:29:53.894Z,4.33
2017-09-01T20:32:26.121Z,4.30
2017-09-01T20:34:54.173Z,4.50
2017-09-01T20:37:22.102Z,4.87
2017-09-01T20:39:49.560Z,5.97
2017-09-01T20:42:17.446Z,4.80
2017-09-01T20:44:45.116Z,3.63
2017-09-01T20:47:12.942Z,4.77
2017-09-01T20:49:40.483Z,4.83
2017-09-01T20:52:08.265Z,3.70
2017-09-01T20:54:36.520Z,3.80
2017-09-01T20:57:03.963Z,3.97
2017-09-01T20:59:31.900Z,3.37
2017-09-01T21:01:59.545Z,3.70
2017-09-01T21:04:27.010Z,3.97
2017-09-01T21:06:54.770Z,3.50
2017-09-01T21:09:22.549Z,3.70
2017-09-01T21:11:50.054Z,4.00
2017-09-01T21:14:17.480Z,3.57
2017-09-01T21:16:44.939Z,4.13
2017-09-01T21:19:12.389Z,3.90
2017-09-01T21:21:40.033Z,3.50
2017-09-01T21:24:07.467Z,3.77
2017-09-01T21:26:34.910Z,4.10
2017-09-01T21:29:02.643Z,3.20
2017-09-01T21:31:30.421Z,3.17
2017-09-01T21:33:57.864Z,3.10
2017-09-01T21:36:25.483Z,3.10
2017-09-01T21:38:52.971Z,3.63
2017-09-01T21:41:20.760Z,3.10
2017-09-01T21:43:49.227Z,3.40
2017-09-01T21:46:16.748Z,3.07
2017-09-01T21:48:44.972Z,3.13
2017-09-01T21:51:12.784Z,2.77
2017-09-01T21:53:40.250Z,2.70
2017-09-01T21:56:08.026Z,3.60
2017-09-01T21:58:35.483Z,3.43
2017-09-01T22:01:14.585Z,2.50
2017-09-01T22:03:42.072Z,3.17
2017-09-01T22:06:09.564Z,2.90
2017-09-01T22:08:37.031Z,2.77
2017-09-01T22:11:08.781Z,2.60
2017-09-01T22:13:36.667Z,2.93
2017-09-01T22:16:04.185Z,2.67
2017-09-01T22:18:31.977Z,2.53
2017-09-01T22:20:59.423Z,2.60
2017-09-01T22:23:26.896Z,2.80
2017-09-01T22:25:54.362Z,2.67
2017-09-01T22:28:25.684Z,2.83
2017-09-01T22:30:53.136Z,2.40
2017-09-01T22:33:20.596Z,2.47
2017-09-01T22:35:48.439Z,2.53
2017-09-01T22:38:15.891Z,3.20
2017-09-01T22:40:44.147Z,2.80
2017-09-01T22:43:11.683Z,2.70
2017-09-01T22:45:39.909Z,2.40
2017-09-01T22:48:07.372Z,2.53
2017-09-01T22:50:38.707Z,2.20
2017-09-01T22:53:09.959Z,2.20
2017-09-01T22:55:37.732Z,2.80
2017-09-01T22:58:05.986Z,2.53
2017-09-01T23:00:33.412Z,3.07
2017-09-01T23:03:01.628Z,2.43
2017-09-01T23:05:29.382Z,2.70
2017-09-01T23:07:56.840Z,2.47
2017-09-01T23:10:25.166Z,2.97
2017-09-01T23:12:52.744Z,3.07
2017-09-01T23:15:20.921Z,2.87
2017-09-01T23:17:49.512Z,2.80
2017-09-01T23:20:21.387Z,2.70
2017-09-01T23:22:49.609Z,2.67
2017-09-01T23:25:17.082Z,3.00
2017-09-01T23:27:44.531Z,2.70
2017-09-01T23:30:16.327Z,2.90
2017-09-01T23:32:43.823Z,3.00
2017-09-01T23:35:11.821Z,3.20
2017-09-01T23:37:39.289Z,2.90
2017-09-01T23:40:06.748Z,2.83
2017-09-01T23:42:34.726Z,3.03
2017-09-01T23:45:02.163Z,3.17
2017-09-01T23:47:29.616Z,2.87
2017-09-01T23:49:57.107Z,3.00
2017-09-01T23:52:25.225Z,2.53
2017-09-01T23:54:53.448Z,2.90
2017-09-01T23:57:20.883Z,2.47
2017-09-01T23:59:49.174Z,2.93
